Terminal Aerodrome Forecast
Issued by NWS Bismarck, ND

Home | Current Version | Previous Version | Text Only | Print | Product List | Glossary Off
Versions: 1 2 3 4 5 6 7 8 9 10 11 12 13 14 15 16 17 18 19 20 21

185
FTUS43 KBIS 161239 AAA
TAFISN
TAF AMD
KISN 161239Z 1613/1712 00000KT P6SM BKN003
      TEMPO 1613/1614 SCT003
     FM161400 VRB03KT P6SM FEW110=

USA.gov is the U.S. government's official web portal to all federal, state and local government web resources and services.